This is the latest recevied weather packets stored in our database for station/object K6POO-1. If no packets are shown the sender has not sent any weather packets the latest 1 day(s).
| Time | Temp. | Humidity | Pressure | Rain* | Wind** | Luminosity | Snow |
|---|---|---|---|---|---|---|---|
| 1778102610 | 20° C | 64% | 1019.6 hPa | 0 mm | - | 871 W/m² | - |
| 1778102305 | 20° C | 62% | 1019.8 hPa | 0 mm | - | 881 W/m² | - |
| 1778101699 | 20° C | 65% | 1019.8 hPa | 0 mm | - | 899 W/m² | - |
| 1778101092 | 20.56° C | 64% | 1019.8 hPa | 0 mm | - | 915 W/m² | - |
| 1778099880 | 18.89° C | 68% | 1020 hPa | 0 mm | - | 942 W/m² | - |
| 1778099274 | 20° C | 66% | 1020.1 hPa | 0 mm | - | 949 W/m² | - |
| 1778098971 | 19.44° C | 68% | 1020 hPa | 0 mm | - | 956 W/m² | - |
| 1778097758 | 19.44° C | 66% | 1020.5 hPa | 0 mm | - | 970 W/m² | - |
| 1778096545 | 20° C | 65% | 1020.4 hPa | 0 mm | - | 975 W/m² | - |
| 1778095332 | 19.44° C | 65% | 1020.7 hPa | 0 mm | - | 971 W/m² | - |
| 1778093506 | 18.33° C | 68% | 1020.8 hPa | 0 mm | - | 958 W/m² | - |
| 1778093199 | 18.33° C | 67% | 1020.8 hPa | 0 mm | - | 951 W/m² | - |
| 1778091381 | 17.22° C | 72% | 1021 hPa | 0 mm | - | 951 W/m² | - |
| 1778091078 | 17.22° C | 70% | 1021 hPa | 0 mm | - | 329 W/m² | - |
| 1778090471 | 17.78° C | 68% | 1020.6 hPa | 0 mm | - | 380 W/m² | - |
| 1778089258 | 17.78° C | 68% | 1020.8 hPa | 0 mm | - | 965 W/m² | - |
| 1778088956 | 17.22° C | 69% | 1020.7 hPa | 0 mm | - | 927 W/m² | - |
| 1778087138 | 16.67° C | 72% | 1020.9 hPa | 0 mm | - | 887 W/m² | - |
| 1778084707 | 15.56° C | 74% | 1021.1 hPa | 0 mm | - | 327 W/m² | - |
| 1778084101 | 15.56° C | 76% | 1021 hPa | 0 mm | - | 255 W/m² | - |
| 1778083798 | 15° C | 77% | 1020.9 hPa | 0 mm | - | 291 W/m² | - |
| 1778083495 | 15° C | 77% | 1021 hPa | 0 mm | - | 267 W/m² | - |
| 1778083193 | 15° C | 77% | 1021 hPa | 0 mm | - | 218 W/m² | - |
| 1778081782 | 14.44° C | 80% | 1021 hPa | 0 mm | - | 147 W/m² | - |
| 1778081480 | 14.44° C | 80% | 1020.8 hPa | 0 mm | - | 120 W/m² | - |
* Rain latest hour (hover to see other rain measurements)
** Current wind speed in m/s (hover to see current wind gust speed)